createdAt,value
2024-03-08T00:00:33.242Z,22.00
2024-03-08T00:03:02.176Z,21.23
2024-03-08T00:05:29.882Z,22.33
2024-03-08T00:07:57.605Z,20.20
2024-03-08T00:10:28.477Z,22.07
2024-03-08T00:12:56.530Z,21.30
2024-03-08T00:15:24.368Z,19.43
2024-03-08T00:17:52.120Z,20.33
2024-03-08T00:20:20.496Z,20.93
2024-03-08T00:22:48.585Z,20.93
2024-03-08T00:25:17.201Z,23.37
2024-03-08T00:27:46.177Z,21.67
2024-03-08T00:30:15.474Z,21.33
2024-03-08T00:32:43.408Z,22.07
2024-03-08T00:35:11.051Z,21.00
2024-03-08T00:37:38.624Z,20.77
2024-03-08T00:40:08.414Z,21.17
2024-03-08T00:42:36.167Z,20.20
2024-03-08T00:45:05.467Z,19.97
2024-03-08T00:47:33.156Z,20.53
2024-03-08T00:50:00.740Z,20.67
2024-03-08T00:52:28.517Z,22.33
2024-03-08T00:54:56.107Z,21.40
2024-03-08T00:57:23.740Z,19.87
2024-03-08T00:59:51.338Z,21.87
2024-03-08T01:02:20.488Z,20.40
2024-03-08T01:04:49.123Z,21.80
2024-03-08T01:07:16.820Z,19.93
2024-03-08T01:09:44.541Z,19.73
2024-03-08T01:12:12.395Z,21.67
2024-03-08T01:14:40.200Z,20.43
2024-03-08T01:17:07.855Z,20.50
2024-03-08T01:19:37.303Z,21.53
2024-03-08T01:22:05.295Z,20.50
2024-03-08T01:24:32.861Z,20.07
2024-03-08T01:27:00.841Z,20.33
2024-03-08T01:29:28.914Z,22.00
2024-03-08T01:31:57.168Z,20.83
2024-03-08T01:34:24.770Z,21.50
2024-03-08T01:36:53.696Z,23.00
2024-03-08T01:39:22.972Z,19.33
2024-03-08T01:41:50.603Z,18.93
2024-03-08T01:44:18.677Z,20.20
2024-03-08T01:46:46.689Z,20.40
2024-03-08T01:49:14.742Z,20.30
2024-03-08T01:51:42.970Z,18.80
2024-03-08T01:54:13.813Z,20.80
2024-03-08T01:56:41.738Z,22.60
2024-03-08T01:59:09.711Z,19.83
2024-03-08T02:01:37.380Z,21.00
2024-03-08T02:04:08.180Z,19.37
2024-03-08T02:06:35.813Z,20.00
2024-03-08T02:09:06.962Z,19.20
2024-03-08T02:11:37.331Z,18.73
2024-03-08T02:14:07.219Z,19.83
2024-03-08T02:16:34.952Z,19.07
2024-03-08T02:19:02.474Z,20.63
2024-03-08T02:21:32.020Z,18.23
2024-03-08T02:24:00.067Z,19.50
2024-03-08T02:26:28.250Z,20.53
2024-03-08T02:28:56.714Z,18.83
2024-03-08T02:31:24.305Z,18.83
2024-03-08T02:33:51.980Z,21.47
2024-03-08T02:36:19.772Z,18.43
2024-03-08T02:38:48.778Z,18.50
2024-03-08T02:41:16.329Z,19.37
2024-03-08T02:43:43.870Z,21.33
2024-03-08T02:46:11.594Z,20.60
2024-03-08T02:48:40.748Z,19.13
2024-03-08T02:51:08.455Z,18.00
2024-03-08T02:53:36.312Z,17.60
2024-03-08T02:56:05.832Z,18.27
2024-03-08T02:58:33.365Z,19.30
2024-03-08T03:01:00.969Z,18.87
2024-03-08T03:03:28.747Z,19.63
2024-03-08T03:05:57.260Z,19.53
2024-03-08T03:08:24.938Z,21.33
2024-03-08T03:10:52.558Z,18.00
2024-03-08T03:13:21.500Z,19.40
2024-03-08T03:15:49.131Z,19.50
2024-03-08T03:18:16.928Z,18.33
2024-03-08T03:20:45.371Z,18.07
2024-03-08T03:23:16.342Z,18.60
2024-03-08T03:25:44.829Z,18.90
2024-03-08T03:28:15.831Z,19.30
2024-03-08T03:30:45.401Z,19.27
2024-03-08T03:33:13.927Z,18.87
2024-03-08T03:35:42.547Z,17.53
2024-03-08T03:38:11.594Z,20.20
2024-03-08T03:40:40.380Z,18.57
2024-03-08T03:43:08.307Z,19.40
2024-03-08T03:45:37.825Z,18.43
2024-03-08T03:48:10.368Z,17.77
2024-03-08T03:50:38.567Z,19.27
2024-03-08T03:53:08.688Z,16.63
2024-03-08T03:55:37.949Z,18.50
2024-03-08T03:58:05.819Z,18.23
2024-03-08T04:00:33.892Z,18.43
2024-03-08T04:03:02.242Z,18.90
2024-03-08T04:05:32.114Z,19.27
2024-03-08T04:07:59.757Z,18.30
2024-03-08T04:10:27.409Z,18.97
2024-03-08T04:12:54.981Z,19.83
2024-03-08T04:15:22.659Z,19.97
2024-03-08T04:17:50.293Z,18.97
2024-03-08T04:20:18.664Z,17.40
2024-03-08T04:22:49.376Z,18.13
2024-03-08T04:25:17.083Z,18.33
2024-03-08T04:27:45.520Z,17.33
2024-03-08T04:30:13.853Z,18.43
2024-03-08T04:32:42.352Z,18.50
2024-03-08T04:35:10.285Z,19.00
2024-03-08T04:37:37.916Z,19.47
2024-03-08T04:40:07.660Z,17.63
2024-03-08T04:42:35.785Z,16.87
2024-03-08T04:45:03.545Z,17.03
2024-03-08T04:47:31.859Z,16.20
2024-03-08T04:49:59.443Z,16.13
2024-03-08T04:52:27.017Z,17.03
2024-03-08T04:54:54.573Z,17.30
2024-03-08T04:57:23.479Z,17.93
2024-03-08T04:59:51.120Z,18.10
2024-03-08T05:02:19.011Z,17.27
2024-03-08T05:04:46.576Z,16.63
2024-03-08T05:07:14.103Z,17.17
2024-03-08T05:09:42.166Z,18.97
2024-03-08T05:12:09.806Z,18.03
2024-03-08T05:14:38.724Z,18.10
2024-03-08T05:17:07.951Z,17.63
2024-03-08T05:19:35.640Z,18.13
2024-03-08T05:22:04.120Z,16.43
2024-03-08T05:24:32.060Z,16.23
2024-03-08T05:27:01.377Z,16.80
2024-03-08T05:29:29.991Z,17.87
2024-03-08T05:31:59.631Z,17.10
2024-03-08T05:34:27.261Z,16.70
2024-03-08T05:36:55.784Z,16.80
2024-03-08T05:39:24.562Z,16.67
2024-03-08T05:41:52.460Z,16.70
2024-03-08T05:44:20.091Z,16.10
2024-03-08T05:46:48.557Z,16.07
2024-03-08T05:49:17.701Z,16.53
2024-03-08T05:51:45.294Z,17.13
2024-03-08T05:54:15.525Z,16.37
2024-03-08T05:56:46.027Z,16.67
2024-03-08T05:59:14.598Z,17.73
2024-03-08T06:01:43.500Z,14.97
2024-03-08T06:04:12.115Z,17.80
2024-03-08T06:06:42.063Z,17.67
2024-03-08T06:09:13.457Z,17.43
2024-03-08T06:11:42.521Z,16.30
2024-03-08T06:14:10.190Z,16.87
2024-03-08T06:16:39.085Z,17.17
2024-03-08T06:19:06.928Z,17.60
2024-03-08T06:21:34.575Z,16.40
2024-03-08T06:24:03.526Z,16.07
2024-03-08T06:26:31.696Z,15.27
2024-03-08T06:29:00.050Z,17.73
2024-03-08T06:31:27.791Z,17.67
2024-03-08T06:33:57.373Z,17.20
2024-03-08T06:36:25.682Z,17.13
2024-03-08T06:38:53.690Z,16.87
2024-03-08T06:41:22.912Z,17.67
2024-03-08T06:43:52.755Z,16.47
2024-03-08T06:46:21.777Z,16.20
2024-03-08T06:48:50.328Z,15.90
2024-03-08T06:51:18.400Z,15.57
2024-03-08T06:53:45.984Z,16.97
2024-03-08T06:56:13.565Z,16.67
2024-03-08T06:58:43.304Z,15.33
2024-03-08T07:01:15.035Z,16.30
2024-03-08T07:03:45.370Z,15.40
2024-03-08T07:06:13.306Z,16.30
2024-03-08T07:08:41.334Z,15.60
2024-03-08T07:11:09.110Z,17.07
2024-03-08T07:13:36.709Z,16.97
2024-03-08T07:16:06.272Z,17.17
2024-03-08T07:18:35.541Z,15.43
2024-03-08T07:21:04.722Z,15.20
2024-03-08T07:23:49.804Z,15.97
2024-03-08T07:26:17.496Z,15.80
2024-03-08T07:28:45.032Z,16.00
2024-03-08T07:31:22.370Z,15.13
2024-03-08T07:33:51.472Z,15.90
2024-03-08T07:36:19.210Z,17.13
2024-03-08T07:38:48.058Z,15.70
2024-03-08T07:41:17.442Z,14.93
2024-03-08T07:43:45.049Z,15.50
2024-03-08T07:46:14.234Z,16.70
2024-03-08T07:48:42.162Z,15.73
2024-03-08T07:51:10.561Z,16.73
2024-03-08T07:53:39.023Z,17.40
2024-03-08T07:56:07.211Z,16.43
2024-03-08T07:58:35.885Z,15.67
2024-03-08T08:01:03.844Z,17.80
2024-03-08T08:03:32.913Z,15.57
2024-03-08T08:06:00.416Z,14.50
2024-03-08T08:08:28.146Z,16.60
2024-03-08T08:10:55.960Z,14.90
2024-03-08T08:13:24.479Z,14.93
2024-03-08T08:15:52.046Z,14.73
2024-03-08T08:18:22.605Z,14.10
2024-03-08T08:20:51.538Z,16.63
2024-03-08T08:23:20.412Z,16.53
2024-03-08T08:25:49.593Z,16.47
2024-03-08T08:28:18.480Z,15.17
2024-03-08T08:30:46.232Z,16.00
2024-03-08T08:33:14.696Z,15.43
2024-03-08T08:35:42.251Z,15.27
2024-03-08T08:38:11.290Z,15.47
2024-03-08T08:40:38.858Z,13.73
2024-03-08T08:43:06.725Z,15.47
2024-03-08T08:45:34.306Z,16.07
2024-03-08T08:48:01.970Z,18.13
2024-03-08T08:50:29.822Z,16.93
2024-03-08T08:52:57.801Z,14.30
2024-03-08T08:55:27.534Z,17.20
2024-03-08T08:57:55.705Z,17.27
2024-03-08T09:00:27.974Z,14.67
2024-03-08T09:02:56.268Z,15.00
2024-03-08T09:05:25.209Z,15.70
2024-03-08T09:07:54.049Z,16.40
2024-03-08T09:10:22.525Z,13.57
2024-03-08T09:12:51.568Z,14.27
2024-03-08T09:15:21.649Z,14.97
2024-03-08T09:17:49.683Z,14.83
2024-03-08T09:20:18.580Z,14.90
2024-03-08T09:22:46.265Z,14.97
2024-03-08T09:25:13.920Z,14.17
2024-03-08T09:27:42.221Z,14.90
2024-03-08T09:30:14.286Z,16.20
2024-03-08T09:32:42.294Z,14.40
2024-03-08T09:35:10.051Z,20.87
2024-03-08T09:37:38.661Z,17.03
2024-03-08T09:40:10.899Z,14.47
2024-03-08T09:42:39.658Z,14.73
2024-03-08T09:45:11.808Z,14.57
2024-03-08T09:47:41.451Z,13.63
2024-03-08T09:50:10.192Z,14.87
2024-03-08T09:52:38.325Z,14.27
2024-03-08T09:55:07.090Z,14.60
2024-03-08T09:57:34.882Z,13.93
2024-03-08T10:00:02.454Z,14.50
2024-03-08T10:02:32.515Z,13.80
2024-03-08T10:05:04.346Z,14.40
2024-03-08T10:07:31.947Z,14.43
2024-03-08T10:10:00.436Z,13.57
2024-03-08T10:12:29.579Z,12.30
2024-03-08T10:14:57.257Z,13.27
2024-03-08T10:17:25.554Z,13.87
2024-03-08T10:19:54.425Z,13.53
2024-03-08T10:22:23.507Z,14.23
2024-03-08T10:24:51.347Z,12.77
2024-03-08T10:27:19.011Z,13.63
2024-03-08T10:29:48.933Z,13.97
2024-03-08T10:32:16.856Z,13.87
2024-03-08T10:34:45.808Z,14.03
2024-03-08T10:37:18.492Z,12.43
2024-03-08T10:39:53.851Z,14.20
2024-03-08T10:42:25.715Z,13.90
2024-03-08T10:45:01.069Z,14.83
2024-03-08T10:47:31.099Z,14.17
2024-03-08T10:50:05.267Z,14.10
2024-03-08T10:52:33.576Z,13.60
2024-03-08T10:55:03.630Z,14.30
2024-03-08T10:57:32.240Z,15.37
2024-03-08T11:00:00.252Z,14.57
2024-03-08T11:02:28.427Z,13.23
2024-03-08T11:04:57.771Z,13.63
2024-03-08T11:07:28.710Z,14.90
2024-03-08T11:09:57.986Z,12.73
2024-03-08T11:12:30.272Z,14.27
2024-03-08T11:15:01.894Z,13.97
2024-03-08T11:17:42.614Z,14.30
2024-03-08T11:20:16.328Z,13.83
2024-03-08T11:22:46.434Z,12.47
2024-03-08T11:25:32.556Z,13.23
2024-03-08T11:28:10.532Z,12.10
2024-03-08T11:30:39.585Z,13.80
2024-03-08T11:33:10.804Z,13.80
2024-03-08T11:35:39.474Z,13.50
2024-03-08T11:38:07.765Z,13.27
2024-03-08T11:40:34.780Z,13.93
2024-03-08T11:43:04.328Z,13.20
2024-03-08T11:45:33.312Z,12.83
2024-03-08T11:48:01.928Z,13.90
2024-03-08T11:50:29.540Z,13.17
2024-03-08T11:53:02.258Z,13.60
2024-03-08T11:55:30.815Z,13.67
2024-03-08T11:58:02.082Z,13.37
2024-03-08T12:00:36.136Z,13.53
2024-03-08T12:03:05.798Z,12.57
2024-03-08T12:05:34.455Z,13.03
2024-03-08T12:08:02.731Z,12.60
2024-03-08T12:10:30.674Z,14.07
2024-03-08T12:13:00.362Z,13.60
2024-03-08T12:15:28.428Z,12.17
2024-03-08T12:17:56.918Z,13.00
2024-03-08T12:20:27.077Z,13.23
2024-03-08T12:22:57.758Z,13.10
2024-03-08T12:25:28.108Z,13.27
2024-03-08T12:27:58.064Z,12.50
2024-03-08T12:30:27.957Z,13.30
2024-03-08T12:32:57.994Z,12.60
2024-03-08T12:35:27.706Z,12.50
2024-03-08T12:37:55.794Z,12.57
2024-03-08T12:40:28.714Z,12.20
2024-03-08T12:42:56.864Z,12.07
2024-03-08T12:45:25.107Z,11.30
2024-03-08T12:47:54.131Z,12.13
2024-03-08T12:50:22.119Z,11.23
2024-03-08T12:52:53.873Z,11.93
2024-03-08T12:55:21.861Z,12.77
2024-03-08T12:57:50.010Z,11.53
2024-03-08T13:00:20.998Z,12.10
2024-03-08T13:02:48.612Z,12.73
2024-03-08T13:05:16.276Z,12.53
2024-03-08T13:07:47.170Z,12.77
2024-03-08T13:10:16.963Z,11.30
2024-03-08T13:12:44.594Z,11.07
2024-03-08T13:15:16.337Z,11.03
2024-03-08T13:17:45.718Z,11.90
2024-03-08T13:20:20.613Z,11.57
2024-03-08T13:22:52.879Z,12.13
2024-03-08T13:25:21.889Z,10.77
2024-03-08T13:27:50.080Z,11.37
2024-03-08T13:30:19.583Z,11.93
2024-03-08T13:32:47.550Z,11.33
2024-03-08T13:35:15.211Z,11.43
2024-03-08T13:37:42.781Z,11.03
2024-03-08T13:40:14.837Z,11.40
2024-03-08T13:42:43.806Z,11.63
2024-03-08T13:45:13.021Z,10.87
2024-03-08T13:47:41.855Z,10.20
2024-03-08T13:50:12.827Z,11.87
2024-03-08T13:52:40.870Z,12.97
2024-03-08T13:55:08.941Z,11.40
2024-03-08T13:57:36.618Z,11.57
2024-03-08T14:00:08.013Z,12.27
2024-03-08T14:02:41.814Z,11.73
2024-03-08T14:05:10.299Z,13.10
2024-03-08T14:07:38.001Z,12.57
2024-03-08T14:10:07.923Z,12.33
2024-03-08T14:12:36.134Z,11.83
2024-03-08T14:15:07.073Z,11.97
2024-03-08T14:17:34.716Z,13.20
2024-03-08T14:20:02.654Z,12.80
2024-03-08T14:22:32.524Z,12.17
2024-03-08T14:25:01.165Z,11.70
2024-03-08T14:27:30.464Z,11.37
2024-03-08T14:29:59.070Z,13.77
2024-03-08T14:32:29.466Z,12.13
2024-03-08T14:34:57.357Z,12.57
2024-03-08T14:37:29.191Z,12.37
2024-03-08T14:39:57.364Z,11.77
2024-03-08T14:42:25.112Z,12.37
2024-03-08T14:44:55.200Z,11.53
2024-03-08T14:47:23.274Z,13.23
2024-03-08T14:49:52.240Z,13.30
2024-03-08T14:52:36.697Z,11.57
2024-03-08T14:55:05.638Z,13.20
2024-03-08T14:57:33.754Z,12.80
2024-03-08T15:00:06.711Z,13.10
2024-03-08T15:02:37.545Z,13.50
2024-03-08T15:05:10.266Z,12.17
2024-03-08T15:07:38.168Z,11.27
2024-03-08T15:10:11.776Z,12.57
2024-03-08T15:12:40.316Z,11.30
2024-03-08T15:15:09.447Z,11.43
2024-03-08T15:17:37.713Z,12.33
2024-03-08T15:20:11.673Z,11.37
2024-03-08T15:22:40.518Z,12.40
2024-03-08T15:25:08.521Z,11.93
2024-03-08T15:27:39.738Z,12.17
2024-03-08T15:30:09.159Z,12.27
2024-03-08T15:32:36.765Z,11.70
2024-03-08T15:35:05.721Z,12.70
2024-03-08T15:37:34.841Z,13.10
2024-03-08T15:40:07.255Z,12.10
2024-03-08T15:42:35.104Z,13.33
2024-03-08T15:45:02.647Z,13.63
2024-03-08T15:47:30.187Z,11.40
2024-03-08T15:49:57.976Z,12.90
2024-03-08T15:52:25.767Z,12.10
2024-03-08T15:54:54.683Z,13.20
2024-03-08T15:57:22.360Z,12.80
2024-03-08T15:59:50.178Z,12.17
2024-03-08T16:02:19.751Z,12.33
2024-03-08T16:04:47.463Z,12.53
2024-03-08T16:07:15.125Z,11.93
2024-03-08T16:09:43.456Z,13.23
2024-03-08T16:12:12.860Z,12.47
2024-03-08T16:14:40.629Z,13.03
2024-03-08T16:17:08.149Z,13.43
2024-03-08T16:19:36.633Z,12.87
2024-03-08T16:22:05.729Z,11.50
2024-03-08T16:24:34.193Z,13.13
2024-03-08T16:27:03.405Z,13.20
2024-03-08T16:29:32.786Z,12.70
2024-03-08T16:32:00.475Z,14.73
2024-03-08T16:34:28.343Z,13.47
2024-03-08T16:36:55.901Z,13.83
2024-03-08T16:39:24.753Z,13.50
2024-03-08T16:41:53.408Z,13.40
2024-03-08T16:44:21.980Z,14.20
2024-03-08T16:46:50.976Z,14.10
2024-03-08T16:49:18.603Z,14.20
2024-03-08T16:51:46.204Z,13.87
2024-03-08T16:54:13.787Z,12.10
2024-03-08T16:56:44.043Z,12.63
2024-03-08T16:59:11.623Z,13.17
2024-03-08T17:01:39.691Z,14.27
2024-03-08T17:04:08.694Z,12.80
2024-03-08T17:06:36.232Z,15.03
2024-03-08T17:09:11.647Z,15.70
2024-03-08T17:11:39.365Z,14.50
2024-03-08T17:14:07.096Z,16.17
2024-03-08T17:16:36.996Z,16.73
2024-03-08T17:19:07.370Z,17.70
2024-03-08T17:21:36.248Z,19.90
2024-03-08T17:24:04.813Z,17.10
2024-03-08T17:26:33.199Z,15.53
2024-03-08T17:29:01.112Z,12.87
2024-03-08T17:31:28.867Z,12.73
2024-03-08T17:33:56.604Z,12.87
2024-03-08T17:36:24.196Z,12.60
2024-03-08T17:38:53.966Z,12.27
2024-03-08T17:41:24.600Z,10.83
2024-03-08T17:43:53.000Z,12.70
2024-03-08T17:46:21.085Z,12.27
2024-03-08T17:48:48.760Z,14.17
2024-03-08T17:51:17.086Z,12.87
2024-03-08T17:53:45.853Z,12.70
2024-03-08T17:56:14.814Z,12.60
2024-03-08T17:58:42.439Z,12.07
2024-03-08T18:01:12.965Z,11.83
2024-03-08T18:03:41.424Z,12.67
2024-03-08T18:06:10.118Z,12.37
2024-03-08T18:08:38.031Z,13.30
2024-03-08T18:11:05.693Z,13.07
2024-03-08T18:13:34.682Z,13.47
2024-03-08T18:16:02.210Z,14.67
2024-03-08T18:18:29.817Z,14.97
2024-03-08T18:20:57.428Z,13.77
2024-03-08T18:23:25.013Z,13.87
2024-03-08T18:25:52.576Z,14.07
2024-03-08T18:28:20.520Z,14.37
2024-03-08T18:30:51.748Z,15.07
2024-03-08T18:33:21.926Z,15.23
2024-03-08T18:35:49.505Z,13.70
2024-03-08T18:38:19.702Z,13.87
2024-03-08T18:40:48.982Z,14.23
2024-03-08T18:43:18.165Z,14.03
2024-03-08T18:45:46.712Z,14.10
2024-03-08T18:48:15.905Z,14.30
2024-03-08T18:50:46.351Z,13.13
2024-03-08T18:53:14.034Z,14.60
2024-03-08T18:55:44.432Z,15.83
2024-03-08T18:58:12.185Z,14.87
2024-03-08T19:00:40.464Z,16.23
2024-03-08T19:03:10.217Z,15.77
2024-03-08T19:05:41.256Z,15.40
2024-03-08T19:08:09.774Z,15.33
2024-03-08T19:10:39.066Z,16.03
2024-03-08T19:13:09.563Z,15.20
2024-03-08T19:15:39.155Z,14.93
2024-03-08T19:18:08.653Z,13.80
2024-03-08T19:20:36.892Z,13.43
2024-03-08T19:23:07.079Z,13.50
2024-03-08T19:25:35.972Z,14.30
2024-03-08T19:28:06.008Z,13.90
2024-03-08T19:30:34.224Z,14.17
2024-03-08T19:33:02.576Z,13.67
2024-03-08T19:35:30.740Z,13.20
2024-03-08T19:38:00.081Z,13.17
2024-03-08T19:40:33.339Z,13.77
2024-03-08T19:43:01.510Z,13.60
2024-03-08T19:45:30.363Z,14.00
2024-03-08T19:48:00.146Z,13.87
2024-03-08T19:50:28.262Z,13.57
2024-03-08T19:52:56.429Z,15.20
2024-03-08T19:55:24.467Z,14.33
2024-03-08T19:57:54.924Z,15.10
2024-03-08T20:00:26.649Z,14.27
2024-03-08T20:02:55.746Z,13.87
2024-03-08T20:05:25.637Z,13.57
2024-03-08T20:07:55.878Z,13.43
2024-03-08T20:10:24.482Z,14.17
2024-03-08T20:12:54.726Z,14.10
2024-03-08T20:15:26.098Z,13.47
2024-03-08T20:17:54.384Z,13.93
2024-03-08T20:20:22.747Z,13.13
2024-03-08T20:22:51.671Z,13.50
2024-03-08T20:25:20.217Z,12.47
2024-03-08T20:27:52.258Z,13.50
2024-03-08T20:30:23.435Z,14.37
2024-03-08T20:32:53.599Z,12.77
2024-03-08T20:35:22.019Z,13.30
2024-03-08T20:37:49.985Z,14.87
2024-03-08T20:40:24.655Z,16.07
2024-03-08T20:42:53.235Z,16.13
2024-03-08T20:45:25.129Z,14.60
2024-03-08T20:47:54.589Z,14.03
2024-03-08T20:50:24.934Z,13.80
2024-03-08T20:52:54.239Z,13.00
2024-03-08T20:55:22.997Z,12.77
2024-03-08T20:57:50.772Z,12.50
2024-03-08T21:00:35.597Z,12.93
2024-03-08T21:03:06.475Z,13.57
2024-03-08T21:05:35.059Z,12.30
2024-03-08T21:08:06.181Z,15.97
2024-03-08T21:10:35.993Z,14.60
2024-03-08T21:13:03.907Z,14.57
2024-03-08T21:15:31.618Z,16.00
2024-03-08T21:17:59.811Z,15.93
2024-03-08T21:20:29.087Z,16.93
2024-03-08T21:22:57.402Z,16.73
2024-03-08T21:25:25.667Z,16.43
2024-03-08T21:27:53.573Z,14.80
2024-03-08T21:30:22.011Z,15.33
2024-03-08T21:32:49.731Z,14.70
2024-03-08T21:35:20.736Z,14.57
2024-03-08T21:37:49.858Z,14.70
2024-03-08T21:40:22.855Z,15.00
2024-03-08T21:42:51.142Z,14.33
2024-03-08T21:45:18.664Z,12.73
2024-03-08T21:47:46.467Z,13.97
2024-03-08T21:50:16.161Z,13.73
2024-03-08T21:52:44.564Z,14.10
2024-03-08T21:55:15.585Z,13.67
2024-03-08T21:57:44.167Z,14.13
2024-03-08T22:00:13.185Z,15.40
2024-03-08T22:02:41.494Z,14.30
2024-03-08T22:05:09.755Z,13.70
2024-03-08T22:07:37.755Z,14.77
2024-03-08T22:10:05.695Z,14.20
2024-03-08T22:12:35.077Z,14.07
2024-03-08T22:15:02.787Z,14.10
2024-03-08T22:17:31.196Z,14.63
2024-03-08T22:20:04.956Z,14.50
2024-03-08T22:22:32.606Z,14.43
2024-03-08T22:25:01.704Z,13.60
2024-03-08T22:27:29.230Z,13.83
2024-03-08T22:29:58.110Z,13.47
2024-03-08T22:32:25.692Z,13.83
2024-03-08T22:34:53.290Z,13.47
2024-03-08T22:37:21.018Z,14.17
2024-03-08T22:39:49.276Z,15.00
2024-03-08T22:42:16.854Z,14.20
2024-03-08T22:44:44.381Z,14.57
2024-03-08T22:47:13.313Z,14.73
2024-03-08T22:49:40.863Z,13.73
2024-03-08T22:52:08.370Z,14.50
2024-03-08T22:54:36.004Z,14.27
2024-03-08T22:57:09.316Z,14.13
2024-03-08T22:59:38.107Z,14.87
2024-03-08T23:02:05.772Z,14.80
2024-03-08T23:04:34.851Z,14.30
2024-03-08T23:07:02.530Z,14.90
2024-03-08T23:09:32.890Z,13.97
2024-03-08T23:12:00.836Z,14.53
2024-03-08T23:14:28.370Z,14.80
2024-03-08T23:16:55.999Z,14.10
2024-03-08T23:19:24.214Z,15.10
2024-03-08T23:21:54.916Z,15.00
2024-03-08T23:24:22.452Z,14.67
2024-03-08T23:26:49.964Z,13.93
2024-03-08T23:29:18.641Z,14.47
2024-03-08T23:31:46.327Z,15.13
2024-03-08T23:34:13.905Z,14.83
2024-03-08T23:36:41.775Z,13.37
2024-03-08T23:39:12.854Z,14.47
2024-03-08T23:41:41.961Z,14.23
2024-03-08T23:44:09.740Z,14.13
2024-03-08T23:46:37.491Z,14.20
2024-03-08T23:49:05.087Z,14.97
2024-03-08T23:51:32.707Z,14.77
2024-03-08T23:54:00.297Z,15.00
2024-03-08T23:56:31.394Z,12.87
2024-03-08T23:59:02.638Z,13.50
